createdAt,value
2022-07-30T00:01:21.572Z,6.68
2022-07-30T00:06:23.418Z,5.53
2022-07-30T00:11:27.916Z,6.85
2022-07-30T00:16:30.007Z,6.38
2022-07-30T00:21:35.724Z,5.83
2022-07-30T00:26:40.647Z,5.90
2022-07-30T00:31:42.469Z,6.75
2022-07-30T00:36:44.225Z,6.32
2022-07-30T00:42:04.506Z,7.00
2022-07-30T00:47:06.303Z,7.35
2022-07-30T00:52:08.019Z,7.85
2022-07-30T00:57:09.737Z,7.20
2022-07-30T01:02:11.460Z,7.30
2022-07-30T01:07:13.270Z,6.77
2022-07-30T01:12:19.902Z,7.80
2022-07-30T01:17:21.632Z,7.18
2022-07-30T01:22:27.907Z,7.75
2022-07-30T01:27:47.524Z,7.40
2022-07-30T01:32:51.253Z,7.68
2022-07-30T01:37:55.343Z,7.63
2022-07-30T01:42:58.943Z,8.10
2022-07-30T01:48:03.841Z,7.10
2022-07-30T01:53:06.979Z,7.23
2022-07-30T01:58:10.602Z,7.50
2022-07-30T02:03:12.713Z,7.05
2022-07-30T02:08:27.745Z,6.30
2022-07-30T02:13:30.268Z,5.90
2022-07-30T02:18:35.608Z,5.95
2022-07-30T02:23:44.248Z,5.30
2022-07-30T02:28:49.844Z,5.20
2022-07-30T02:33:55.791Z,5.38
2022-07-30T02:38:59.225Z,5.32
2022-07-30T02:44:02.582Z,5.37
2022-07-30T02:49:06.854Z,5.13
2022-07-30T02:54:09.921Z,5.47
2022-07-30T02:59:15.317Z,4.82
2022-07-30T03:04:21.009Z,5.47
2022-07-30T03:09:23.125Z,5.27
2022-07-30T03:14:25.093Z,5.70
2022-07-30T03:19:30.926Z,5.40
2022-07-30T03:24:34.367Z,5.90
2022-07-30T03:29:38.549Z,6.07
2022-07-30T03:34:41.710Z,6.00
2022-07-30T03:39:43.806Z,6.47
2022-07-30T03:44:45.775Z,6.43
2022-07-30T03:49:47.549Z,7.10
2022-07-30T03:54:49.901Z,7.22
2022-07-30T03:59:51.888Z,6.53
2022-07-30T04:04:53.796Z,7.47
2022-07-30T04:09:55.546Z,6.80
2022-07-30T04:14:57.339Z,6.63
2022-07-30T04:20:08.863Z,7.43
2022-07-30T04:25:11.682Z,6.82
2022-07-30T04:30:27.551Z,7.88
2022-07-30T04:35:51.020Z,7.03
2022-07-30T04:40:53.895Z,6.73
2022-07-30T04:45:55.631Z,6.60
2022-07-30T04:51:00.683Z,6.70
2022-07-30T04:56:04.147Z,6.95
2022-07-30T05:01:06.029Z,7.60
2022-07-30T05:06:08.512Z,6.95
2022-07-30T05:11:13.797Z,6.72
2022-07-30T05:16:16.003Z,6.53
2022-07-30T05:21:17.876Z,6.57
2022-07-30T05:26:20.553Z,6.72
2022-07-30T05:31:22.438Z,7.55
2022-07-30T05:36:24.282Z,8.50
2022-07-30T05:41:32.260Z,8.87
2022-07-30T05:46:34.970Z,10.40
2022-07-30T05:51:36.767Z,9.77
2022-07-30T05:56:38.892Z,10.02
2022-07-30T06:01:40.682Z,10.10
2022-07-30T06:06:42.467Z,9.55
2022-07-30T06:11:44.163Z,9.80
2022-07-30T06:16:45.886Z,9.73
2022-07-30T06:22:06.072Z,8.17
2022-07-30T06:27:08.864Z,13.98
2022-07-30T06:32:10.593Z,14.65
2022-07-30T06:37:12.521Z,12.20
2022-07-30T06:42:14.415Z,13.97
2022-07-30T06:47:20.572Z,12.23
2022-07-30T06:52:22.556Z,13.30
2022-07-30T06:57:24.369Z,12.40
2022-07-30T07:02:26.092Z,10.70
2022-07-30T07:07:41.169Z,9.50
2022-07-30T07:12:43.388Z,8.23
2022-07-30T07:17:45.151Z,5.60
2022-07-30T07:22:46.869Z,8.63
2022-07-30T07:28:12.626Z,8.00
2022-07-30T07:33:11.181Z,9.70
2022-07-30T07:38:12.960Z,9.10
2022-07-30T07:43:15.300Z,9.07
2022-07-30T07:48:18.682Z,7.63
2022-07-30T07:53:20.563Z,8.82
2022-07-30T07:58:26.307Z,7.97
2022-07-30T08:03:28.465Z,8.05
2022-07-30T08:08:30.231Z,8.13
2022-07-30T08:13:47.990Z,9.07
2022-07-30T08:18:53.753Z,7.83
2022-07-30T08:23:55.475Z,7.80
2022-07-30T08:28:57.207Z,6.00
2022-07-30T08:33:58.949Z,4.93
2022-07-30T08:39:00.816Z,5.00
2022-07-30T08:44:03.755Z,6.68
2022-07-30T08:49:10.982Z,5.97
2022-07-30T08:54:13.487Z,6.32
2022-07-30T08:59:16.525Z,6.10
2022-07-30T09:04:18.651Z,5.68
2022-07-30T09:09:20.353Z,6.38
2022-07-30T09:14:22.174Z,6.73
2022-07-30T09:19:32.576Z,7.07
2022-07-30T09:24:42.431Z,6.43
2022-07-30T09:29:44.328Z,5.22
2022-07-30T09:34:47.358Z,5.55
2022-07-30T09:39:56.490Z,5.25
2022-07-30T09:45:12.591Z,6.22
2022-07-30T09:50:18.084Z,7.22
2022-07-30T09:55:34.139Z,6.90
2022-07-30T10:00:37.227Z,6.93
2022-07-30T10:05:39.424Z,5.93
2022-07-30T10:10:49.190Z,6.10
2022-07-30T10:15:52.857Z,5.68
2022-07-30T10:20:54.939Z,6.00
2022-07-30T10:25:57.153Z,6.20
2022-07-30T10:30:59.895Z,3.90
2022-07-30T10:36:02.713Z,5.78
2022-07-30T10:41:15.221Z,4.13
2022-07-30T10:47:10.353Z,4.90
2022-07-30T10:52:12.464Z,4.97
2022-07-30T10:57:31.656Z,3.10
2022-07-30T11:02:34.331Z,3.45
2022-07-30T11:07:36.344Z,3.65
2022-07-30T11:12:44.805Z,2.85
2022-07-30T11:18:12.438Z,0.97
2022-07-30T11:23:20.860Z,1.50
2022-07-30T11:28:49.519Z,0.95
2022-07-30T11:33:52.644Z,1.20
2022-07-30T11:39:05.231Z,1.33
2022-07-30T11:44:29.344Z,1.30
2022-07-30T11:49:36.965Z,1.35
2022-07-30T11:54:55.113Z,1.30
2022-07-30T11:59:57.124Z,1.70
2022-07-30T12:04:58.882Z,1.10
2022-07-30T12:10:26.826Z,1.73
2022-07-30T12:15:34.609Z,1.50
2022-07-30T12:20:36.367Z,1.40
2022-07-30T12:25:47.866Z,1.88
2022-07-30T12:30:54.085Z,1.50
2022-07-30T12:35:58.301Z,1.40
2022-07-30T12:41:05.041Z,2.07
2022-07-30T12:46:06.776Z,1.00
2022-07-30T12:51:09.906Z,1.70
2022-07-30T12:56:17.077Z,0.82
2022-07-30T13:01:18.979Z,0.70
2022-07-30T13:06:22.185Z,0.90
2022-07-30T13:11:26.008Z,0.65
2022-07-30T13:16:36.944Z,0.63
2022-07-30T13:21:40.285Z,0.52
2022-07-30T13:26:51.181Z,0.30
2022-07-30T13:31:52.957Z,0.50
2022-07-30T13:36:54.691Z,0.70
2022-07-30T13:41:56.407Z,0.50
2022-07-30T13:47:01.723Z,0.60
2022-07-30T13:52:04.044Z,0.70
2022-07-30T13:57:05.989Z,0.85
2022-07-30T14:02:08.570Z,0.50
2022-07-30T14:07:10.727Z,0.60
2022-07-30T14:12:12.464Z,0.80
2022-07-30T14:17:14.165Z,0.93
2022-07-30T14:22:15.941Z,1.30
2022-07-30T14:27:17.717Z,0.80
2022-07-30T14:32:19.507Z,0.90
2022-07-30T14:37:21.272Z,1.20
2022-07-30T14:42:25.928Z,0.90
2022-07-30T14:47:27.647Z,1.00
2022-07-30T14:52:29.381Z,0.83
2022-07-30T14:57:31.102Z,1.13
2022-07-30T15:02:32.818Z,1.00
2022-07-30T15:07:35.173Z,0.80
2022-07-30T15:12:37.173Z,1.33
2022-07-30T15:17:39.910Z,1.30
2022-07-30T15:22:41.844Z,1.10
2022-07-30T15:27:43.559Z,1.30
2022-07-30T15:32:45.690Z,1.15
2022-07-30T15:37:47.418Z,1.20
2022-07-30T15:42:49.173Z,0.82
2022-07-30T15:47:51.256Z,1.10
2022-07-30T15:52:53.004Z,1.10
2022-07-30T15:57:54.795Z,1.23
2022-07-30T16:02:56.601Z,1.23
2022-07-30T16:07:58.324Z,1.33
2022-07-30T16:13:00.074Z,1.35
2022-07-30T16:18:02.223Z,1.02
2022-07-30T16:23:03.981Z,0.80
2022-07-30T16:28:05.756Z,1.08
2022-07-30T16:33:08.633Z,1.33
2022-07-30T16:38:14.103Z,0.70
2022-07-30T16:43:19.966Z,1.40
2022-07-30T16:48:21.997Z,0.80
2022-07-30T16:53:23.683Z,0.52
2022-07-30T16:58:30.831Z,0.60
2022-07-30T17:03:32.965Z,0.60
2022-07-30T17:08:34.691Z,0.70
2022-07-30T17:13:36.640Z,0.67
2022-07-30T17:18:38.354Z,0.50
2022-07-30T17:23:40.183Z,0.60
2022-07-30T17:28:41.882Z,0.60
2022-07-30T17:33:43.581Z,0.43
2022-07-30T17:38:45.284Z,0.40
2022-07-30T17:43:47.024Z,0.50
2022-07-30T17:48:49.056Z,0.50
2022-07-30T17:53:50.842Z,0.50
2022-07-30T17:58:52.569Z,0.82
2022-07-30T18:03:54.295Z,0.47
2022-07-30T18:08:56.035Z,0.50
2022-07-30T18:13:57.778Z,0.53
2022-07-30T18:18:59.627Z,0.30
2022-07-30T18:24:01.494Z,0.45
2022-07-30T18:29:04.675Z,0.30
2022-07-30T18:34:06.421Z,0.40
2022-07-30T18:39:08.168Z,0.60
2022-07-30T18:44:09.968Z,0.90
2022-07-30T18:49:35.162Z,1.10
2022-07-30T18:54:33.582Z,1.20
2022-07-30T18:59:35.513Z,2.60
2022-07-30T19:04:37.276Z,2.60
2022-07-30T19:09:39.018Z,3.55
2022-07-30T19:14:40.840Z,1.10
2022-07-30T19:19:42.922Z,1.02
2022-07-30T19:24:44.688Z,1.90
2022-07-30T19:29:46.423Z,6.57
2022-07-30T19:34:48.143Z,6.85
2022-07-30T19:40:05.274Z,3.60
2022-07-30T19:45:11.554Z,1.45
2022-07-30T19:50:13.691Z,1.10
2022-07-30T19:55:18.255Z,1.00
2022-07-30T20:00:35.760Z,1.00
2022-07-30T20:05:58.456Z,0.93
2022-07-30T20:10:59.447Z,1.20
2022-07-30T20:16:01.447Z,1.00
2022-07-30T20:21:03.254Z,0.95
2022-07-30T20:26:05.729Z,1.20
2022-07-30T20:31:15.310Z,1.00
2022-07-30T20:36:18.529Z,1.60
2022-07-30T20:41:20.243Z,1.00
2022-07-30T20:46:23.247Z,1.20
2022-07-30T20:51:33.556Z,1.50
2022-07-30T20:56:35.586Z,1.63
2022-07-30T21:01:37.354Z,2.00
2022-07-30T21:06:39.209Z,1.95
2022-07-30T21:11:47.720Z,2.27
2022-07-30T21:16:55.979Z,2.10
2022-07-30T21:21:58.045Z,2.33
2022-07-30T21:27:48.704Z,2.90
2022-07-30T21:32:22.341Z,2.30
2022-07-30T21:37:36.493Z,2.00
2022-07-30T21:42:48.341Z,2.15
2022-07-30T21:47:50.757Z,1.90
2022-07-30T21:52:53.382Z,2.10
2022-07-30T21:57:58.019Z,1.73
2022-07-30T22:02:59.740Z,2.00
2022-07-30T22:08:01.741Z,2.00
2022-07-30T22:13:03.588Z,2.35
2022-07-30T22:18:06.237Z,1.83
2022-07-30T22:23:08.329Z,2.08
2022-07-30T22:28:10.145Z,1.80
2022-07-30T22:33:19.297Z,2.30
2022-07-30T22:38:21.597Z,2.00
2022-07-30T22:43:24.029Z,2.05
2022-07-30T22:48:35.056Z,2.35
2022-07-30T22:58:58.923Z,1.90
2022-07-30T23:04:01.361Z,2.28
2022-07-30T23:09:03.464Z,2.60
2022-07-30T23:12:33.669Z,2.20
2022-07-30T23:14:09.566Z,3.30
2022-07-30T23:19:16.188Z,3.13
2022-07-30T23:24:24.037Z,3.35
2022-07-30T23:29:25.783Z,3.13
2022-07-30T23:34:27.516Z,3.83
2022-07-30T23:39:29.215Z,3.33
2022-07-30T23:44:34.332Z,3.70
2022-07-30T23:49:38.768Z,3.70
2022-07-30T23:54:40.508Z,2.95
2022-07-30T23:59:42.231Z,2.88
